South Weymouth, Massachusetts
Current Conditions -  °F | °C
As of 3:53 AM on Monday 22 Dec 2014 (Local Time) from KOWD Reporting Station
Overcast Overcast  
Wind Chill: 33°   Ceiling: 1900
Heat Index: 33°   Visibility: 10mi
Dew Point: 26°   Wind: 3mph
Humidity: 75%   Direction: 320°NW
Pressure: 30.34"   Gusts: NA
Location:  42.1666°N, 70.9521°W
Report Text: KOWD 220853Z AUTO 32003KT 10SM OVC019 01/M03 A3034 RMK AO2 SLP276 T00061033 50000
Loading
Personal Weather Stations






























Interactive Weather Map New forecast layout! Learn more

10-Day Weather Forecast

Advertisements
Track Severe Weather on mobile